sensor_id;sensor_type;location;lat;lon;timestamp;temperature;humidity
3488;DHT22;38546;48.170;11.724;2024-02-23T00:02:14;7.50;99.90
3488;DHT22;38546;48.170;11.724;2024-02-23T00:04:45;7.50;99.90
3488;DHT22;38546;48.170;11.724;2024-02-23T00:07:15;7.40;99.90
3488;DHT22;38546;48.170;11.724;2024-02-23T00:09:46;7.50;99.90
3488;DHT22;38546;48.170;11.724;2024-02-23T00:12:17;7.50;99.90
3488;DHT22;38546;48.170;11.724;2024-02-23T00:14:47;7.40;99.90
3488;DHT22;38546;48.170;11.724;2024-02-23T00:17:18;7.40;99.90
3488;DHT22;38546;48.170;11.724;2024-02-23T00:19:49;7.50;99.90
3488;DHT22;38546;48.170;11.724;2024-02-23T00:22:19;7.40;99.90
3488;DHT22;38546;48.170;11.724;2024-02-23T00:24:50;7.30;99.90
3488;DHT22;38546;48.170;11.724;2024-02-23T00:27:21;7.30;99.90
3488;DHT22;38546;48.170;11.724;2024-02-23T00:29:51;7.30;99.90
3488;DHT22;38546;48.170;11.724;2024-02-23T00:32:22;7.40;99.90
3488;DHT22;38546;48.170;11.724;2024-02-23T00:34:52;7.30;99.90
3488;DHT22;38546;48.170;11.724;2024-02-23T00:37:23;7.30;99.90
3488;DHT22;38546;48.170;11.724;2024-02-23T00:39:54;7.20;99.90
3488;DHT22;38546;48.170;11.724;2024-02-23T00:42:25;7.30;99.90
3488;DHT22;38546;48.170;11.724;2024-02-23T00:44:55;7.30;99.90
3488;DHT22;38546;48.170;11.724;2024-02-23T00:47:27;7.20;99.90
3488;DHT22;38546;48.170;11.724;2024-02-23T00:49:58;7.20;99.90
3488;DHT22;38546;48.170;11.724;2024-02-23T00:52:29;7.30;99.90
3488;DHT22;38546;48.170;11.724;2024-02-23T00:55:00;7.30;99.90
3488;DHT22;38546;48.170;11.724;2024-02-23T00:57:30;7.30;99.90
3488;DHT22;38546;48.170;11.724;2024-02-23T01:00:02;7.30;99.90
3488;DHT22;38546;48.170;11.724;2024-02-23T01:02:35;7.30;99.90
3488;DHT22;38546;48.170;11.724;2024-02-23T01:05:06;7.20;99.90
3488;DHT22;38546;48.170;11.724;2024-02-23T01:07:39;7.20;99.90
3488;DHT22;38546;48.170;11.724;2024-02-23T01:10:10;7.20;99.90
3488;DHT22;38546;48.170;11.724;2024-02-23T01:12:40;7.30;99.90
3488;DHT22;38546;48.170;11.724;2024-02-23T01:15:11;7.20;99.90
3488;DHT22;38546;48.170;11.724;2024-02-23T01:17:42;7.20;99.90
3488;DHT22;38546;48.170;11.724;2024-02-23T01:20:13;7.20;99.90
3488;DHT22;38546;48.170;11.724;2024-02-23T01:22:43;7.20;99.90
3488;DHT22;38546;48.170;11.724;2024-02-23T01:25:14;7.10;99.90
3488;DHT22;38546;48.170;11.724;2024-02-23T01:27:46;7.10;99.90
3488;DHT22;38546;48.170;11.724;2024-02-23T01:30:16;7.10;99.90
3488;DHT22;38546;48.170;11.724;2024-02-23T01:32:48;7.30;99.90
3488;DHT22;38546;48.170;11.724;2024-02-23T01:35:19;7.30;99.90
3488;DHT22;38546;48.170;11.724;2024-02-23T01:37:49;7.20;99.90
3488;DHT22;38546;48.170;11.724;2024-02-23T01:40:20;7.20;99.90
3488;DHT22;38546;48.170;11.724;2024-02-23T01:43:03;7.20;99.90
3488;DHT22;38546;48.170;11.724;2024-02-23T01:45:34;7.20;99.90
3488;DHT22;38546;48.170;11.724;2024-02-23T01:48:06;7.20;99.90
3488;DHT22;38546;48.170;11.724;2024-02-23T01:50:38;7.30;99.90
3488;DHT22;38546;48.170;11.724;2024-02-23T01:53:10;7.30;99.90
3488;DHT22;38546;48.170;11.724;2024-02-23T01:55:45;7.30;99.90
3488;DHT22;38546;48.170;11.724;2024-02-23T01:58:17;7.30;99.90
3488;DHT22;38546;48.170;11.724;2024-02-23T02:00:48;7.20;99.90
3488;DHT22;38546;48.170;11.724;2024-02-23T02:03:19;7.10;99.90
3488;DHT22;38546;48.170;11.724;2024-02-23T02:05:50;7.20;99.90
3488;DHT22;38546;48.170;11.724;2024-02-23T02:08:23;7.10;99.90
3488;DHT22;38546;48.170;11.724;2024-02-23T02:10:54;7.10;99.90
3488;DHT22;38546;48.170;11.724;2024-02-23T02:13:25;7.10;99.90
3488;DHT22;38546;48.170;11.724;2024-02-23T02:16:00;7.00;99.90
3488;DHT22;38546;48.170;11.724;2024-02-23T02:18:31;6.90;99.90
3488;DHT22;38546;48.170;11.724;2024-02-23T02:21:02;7.10;99.90
3488;DHT22;38546;48.170;11.724;2024-02-23T02:23:32;7.20;99.90
3488;DHT22;38546;48.170;11.724;2024-02-23T02:26:03;7.10;99.90
3488;DHT22;38546;48.170;11.724;2024-02-23T02:28:34;7.00;99.90
3488;DHT22;38546;48.170;11.724;2024-02-23T02:31:05;7.00;99.90
3488;DHT22;38546;48.170;11.724;2024-02-23T02:33:35;7.00;99.90
3488;DHT22;38546;48.170;11.724;2024-02-23T02:36:06;6.90;99.90
3488;DHT22;38546;48.170;11.724;2024-02-23T02:38:38;6.90;99.90
3488;DHT22;38546;48.170;11.724;2024-02-23T02:41:09;7.00;99.90
3488;DHT22;38546;48.170;11.724;2024-02-23T02:43:39;7.00;99.90
3488;DHT22;38546;48.170;11.724;2024-02-23T02:46:10;7.10;99.90
3488;DHT22;38546;48.170;11.724;2024-02-23T02:48:41;7.10;99.90
3488;DHT22;38546;48.170;11.724;2024-02-23T02:51:11;7.00;99.90
3488;DHT22;38546;48.170;11.724;2024-02-23T02:53:42;7.10;99.90
3488;DHT22;38546;48.170;11.724;2024-02-23T02:56:12;7.10;99.90
3488;DHT22;38546;48.170;11.724;2024-02-23T02:58:43;7.10;99.90
3488;DHT22;38546;48.170;11.724;2024-02-23T03:01:14;6.90;99.90
3488;DHT22;38546;48.170;11.724;2024-02-23T03:03:44;6.90;99.90
3488;DHT22;38546;48.170;11.724;2024-02-23T03:06:15;6.70;99.90
3488;DHT22;38546;48.170;11.724;2024-02-23T03:08:46;6.70;99.90
3488;DHT22;38546;48.170;11.724;2024-02-23T03:11:16;6.70;99.90
3488;DHT22;38546;48.170;11.724;2024-02-23T03:13:47;6.60;99.90
3488;DHT22;38546;48.170;11.724;2024-02-23T03:16:33;6.50;99.90
3488;DHT22;38546;48.170;11.724;2024-02-23T03:19:05;6.60;99.90
3488;DHT22;38546;48.170;11.724;2024-02-23T03:21:35;6.30;99.90
3488;DHT22;38546;48.170;11.724;2024-02-23T03:24:06;6.30;99.90
3488;DHT22;38546;48.170;11.724;2024-02-23T03:26:37;6.20;99.90
3488;DHT22;38546;48.170;11.724;2024-02-23T03:29:07;6.20;99.90
3488;DHT22;38546;48.170;11.724;2024-02-23T03:31:38;6.30;99.90
3488;DHT22;38546;48.170;11.724;2024-02-23T03:34:08;6.20;99.90
3488;DHT22;38546;48.170;11.724;2024-02-23T03:36:39;6.20;99.90
3488;DHT22;38546;48.170;11.724;2024-02-23T03:39:10;6.20;99.90
3488;DHT22;38546;48.170;11.724;2024-02-23T03:41:40;6.10;99.90
3488;DHT22;38546;48.170;11.724;2024-02-23T03:44:11;6.10;99.90
3488;DHT22;38546;48.170;11.724;2024-02-23T03:46:47;6.10;99.90
3488;DHT22;38546;48.170;11.724;2024-02-23T03:49:17;6.10;99.90
3488;DHT22;38546;48.170;11.724;2024-02-23T03:51:48;6.10;99.90
3488;DHT22;38546;48.170;11.724;2024-02-23T03:54:18;6.10;99.90
3488;DHT22;38546;48.170;11.724;2024-02-23T03:56:49;6.10;99.90
3488;DHT22;38546;48.170;11.724;2024-02-23T03:59:20;6.20;99.90
3488;DHT22;38546;48.170;11.724;2024-02-23T04:01:50;6.30;99.90
3488;DHT22;38546;48.170;11.724;2024-02-23T04:04:21;6.30;99.90
3488;DHT22;38546;48.170;11.724;2024-02-23T04:06:52;6.30;99.90
3488;DHT22;38546;48.170;11.724;2024-02-23T04:09:22;6.30;99.90
3488;DHT22;38546;48.170;11.724;2024-02-23T04:11:53;6.30;99.90
3488;DHT22;38546;48.170;11.724;2024-02-23T04:14:24;6.30;99.90
3488;DHT22;38546;48.170;11.724;2024-02-23T04:16:54;6.20;99.90
3488;DHT22;38546;48.170;11.724;2024-02-23T04:19:25;6.30;99.90
3488;DHT22;38546;48.170;11.724;2024-02-23T04:21:56;6.30;99.90
3488;DHT22;38546;48.170;11.724;2024-02-23T04:24:26;6.40;99.90
3488;DHT22;38546;48.170;11.724;2024-02-23T04:26:57;6.30;99.90
3488;DHT22;38546;48.170;11.724;2024-02-23T04:29:27;6.30;99.90
3488;DHT22;38546;48.170;11.724;2024-02-23T04:32:00;6.30;99.90
3488;DHT22;38546;48.170;11.724;2024-02-23T04:34:31;6.20;99.90
3488;DHT22;38546;48.170;11.724;2024-02-23T04:37:02;6.20;99.90
3488;DHT22;38546;48.170;11.724;2024-02-23T04:39:33;6.20;99.90
3488;DHT22;38546;48.170;11.724;2024-02-23T04:42:04;6.30;99.90
3488;DHT22;38546;48.170;11.724;2024-02-23T04:44:35;6.30;99.90
3488;DHT22;38546;48.170;11.724;2024-02-23T04:47:06;6.30;99.90
3488;DHT22;38546;48.170;11.724;2024-02-23T04:49:37;6.20;99.90
3488;DHT22;38546;48.170;11.724;2024-02-23T04:52:07;6.20;99.90
3488;DHT22;38546;48.170;11.724;2024-02-23T04:54:39;6.10;99.90
3488;DHT22;38546;48.170;11.724;2024-02-23T04:57:09;6.20;99.90
3488;DHT22;38546;48.170;11.724;2024-02-23T04:59:40;6.10;99.90
3488;DHT22;38546;48.170;11.724;2024-02-23T05:02:11;6.20;99.90
3488;DHT22;38546;48.170;11.724;2024-02-23T05:04:41;6.10;99.90
3488;DHT22;38546;48.170;11.724;2024-02-23T05:07:12;6.00;99.90
3488;DHT22;38546;48.170;11.724;2024-02-23T05:09:43;6.00;99.90
3488;DHT22;38546;48.170;11.724;2024-02-23T05:12:13;5.80;99.90
3488;DHT22;38546;48.170;11.724;2024-02-23T05:14:44;5.70;99.90
3488;DHT22;38546;48.170;11.724;2024-02-23T05:17:15;5.50;99.90
3488;DHT22;38546;48.170;11.724;2024-02-23T05:19:57;5.50;99.90
3488;DHT22;38546;48.170;11.724;2024-02-23T05:22:28;5.40;99.90
3488;DHT22;38546;48.170;11.724;2024-02-23T05:24:59;5.40;99.90
3488;DHT22;38546;48.170;11.724;2024-02-23T05:27:29;5.30;99.90
3488;DHT22;38546;48.170;11.724;2024-02-23T05:30:00;5.30;99.90
3488;DHT22;38546;48.170;11.724;2024-02-23T05:32:31;5.30;99.90
3488;DHT22;38546;48.170;11.724;2024-02-23T05:35:01;5.20;99.90
3488;DHT22;38546;48.170;11.724;2024-02-23T05:37:37;5.20;99.90
3488;DHT22;38546;48.170;11.724;2024-02-23T05:40:08;5.30;99.90
3488;DHT22;38546;48.170;11.724;2024-02-23T05:42:42;5.30;99.90
3488;DHT22;38546;48.170;11.724;2024-02-23T05:45:13;5.30;99.90
3488;DHT22;38546;48.170;11.724;2024-02-23T05:47:43;5.30;99.90
3488;DHT22;38546;48.170;11.724;2024-02-23T05:50:14;5.30;99.90
3488;DHT22;38546;48.170;11.724;2024-02-23T05:52:45;5.30;99.90
3488;DHT22;38546;48.170;11.724;2024-02-23T05:55:15;5.40;99.90
3488;DHT22;38546;48.170;11.724;2024-02-23T05:57:46;5.30;99.90
3488;DHT22;38546;48.170;11.724;2024-02-23T06:00:17;5.40;99.90
3488;DHT22;38546;48.170;11.724;2024-02-23T06:02:50;5.40;99.90
3488;DHT22;38546;48.170;11.724;2024-02-23T06:05:20;5.40;99.90
3488;DHT22;38546;48.170;11.724;2024-02-23T06:07:51;5.50;99.90
3488;DHT22;38546;48.170;11.724;2024-02-23T06:10:21;5.50;99.90
3488;DHT22;38546;48.170;11.724;2024-02-23T06:12:52;5.50;99.90
3488;DHT22;38546;48.170;11.724;2024-02-23T06:15:24;5.50;99.90
3488;DHT22;38546;48.170;11.724;2024-02-23T06:17:54;5.50;99.90
3488;DHT22;38546;48.170;11.724;2024-02-23T06:20:25;5.50;99.90
3488;DHT22;38546;48.170;11.724;2024-02-23T06:22:56;5.50;99.90
3488;DHT22;38546;48.170;11.724;2024-02-23T06:25:26;5.60;99.90
3488;DHT22;38546;48.170;11.724;2024-02-23T06:27:57;5.60;99.90
3488;DHT22;38546;48.170;11.724;2024-02-23T06:30:28;5.60;99.90
3488;DHT22;38546;48.170;11.724;2024-02-23T06:32:58;5.60;99.90
3488;DHT22;38546;48.170;11.724;2024-02-23T06:35:29;5.60;99.90
3488;DHT22;38546;48.170;11.724;2024-02-23T06:38:00;5.60;99.90
3488;DHT22;38546;48.170;11.724;2024-02-23T06:40:31;5.60;99.90
3488;DHT22;38546;48.170;11.724;2024-02-23T06:43:01;5.60;99.90
3488;DHT22;38546;48.170;11.724;2024-02-23T06:45:32;5.60;99.90
3488;DHT22;38546;48.170;11.724;2024-02-23T06:48:03;5.70;99.90
3488;DHT22;38546;48.170;11.724;2024-02-23T06:50:35;5.60;99.90
3488;DHT22;38546;48.170;11.724;2024-02-23T06:53:06;5.60;99.90
3488;DHT22;38546;48.170;11.724;2024-02-23T06:55:37;5.60;99.90
3488;DHT22;38546;48.170;11.724;2024-02-23T06:58:07;5.70;99.90
3488;DHT22;38546;48.170;11.724;2024-02-23T07:00:39;5.70;99.90
3488;DHT22;38546;48.170;11.724;2024-02-23T07:03:09;5.70;99.90
3488;DHT22;38546;48.170;11.724;2024-02-23T07:05:41;5.80;99.90
3488;DHT22;38546;48.170;11.724;2024-02-23T07:08:15;5.80;99.90
3488;DHT22;38546;48.170;11.724;2024-02-23T07:10:46;5.80;99.90
3488;DHT22;38546;48.170;11.724;2024-02-23T07:13:17;5.80;99.90
3488;DHT22;38546;48.170;11.724;2024-02-23T07:15:48;5.80;99.90
3488;DHT22;38546;48.170;11.724;2024-02-23T07:18:18;5.80;99.90
3488;DHT22;38546;48.170;11.724;2024-02-23T07:20:49;5.80;99.90
3488;DHT22;38546;48.170;11.724;2024-02-23T07:23:20;5.80;99.90
3488;DHT22;38546;48.170;11.724;2024-02-23T07:25:53;5.80;99.90
3488;DHT22;38546;48.170;11.724;2024-02-23T07:28:23;5.80;99.90
3488;DHT22;38546;48.170;11.724;2024-02-23T07:30:54;5.90;99.90
3488;DHT22;38546;48.170;11.724;2024-02-23T07:33:25;5.90;99.90
3488;DHT22;38546;48.170;11.724;2024-02-23T07:35:55;6.00;99.90
3488;DHT22;38546;48.170;11.724;2024-02-23T07:38:26;5.90;99.90
3488;DHT22;38546;48.170;11.724;2024-02-23T07:40:57;5.90;99.90
3488;DHT22;38546;48.170;11.724;2024-02-23T07:43:28;5.90;99.90
3488;DHT22;38546;48.170;11.724;2024-02-23T07:45:59;5.90;99.90
3488;DHT22;38546;48.170;11.724;2024-02-23T07:48:30;5.90;99.90
3488;DHT22;38546;48.170;11.724;2024-02-23T07:51:02;5.90;99.90
3488;DHT22;38546;48.170;11.724;2024-02-23T07:53:33;5.90;99.90
3488;DHT22;38546;48.170;11.724;2024-02-23T07:56:07;5.90;99.90
3488;DHT22;38546;48.170;11.724;2024-02-23T07:58:38;5.90;99.90
3488;DHT22;38546;48.170;11.724;2024-02-23T08:01:08;5.90;99.90
3488;DHT22;38546;48.170;11.724;2024-02-23T08:03:39;6.00;99.90
3488;DHT22;38546;48.170;11.724;2024-02-23T08:06:10;6.00;99.90
3488;DHT22;38546;48.170;11.724;2024-02-23T08:08:43;6.10;99.90
3488;DHT22;38546;48.170;11.724;2024-02-23T08:11:14;6.10;99.90
3488;DHT22;38546;48.170;11.724;2024-02-23T08:13:44;6.20;99.90
3488;DHT22;38546;48.170;11.724;2024-02-23T08:16:18;6.20;99.90
3488;DHT22;38546;48.170;11.724;2024-02-23T08:18:49;6.30;99.90
3488;DHT22;38546;48.170;11.724;2024-02-23T08:21:19;6.30;99.90
3488;DHT22;38546;48.170;11.724;2024-02-23T08:23:50;6.40;99.90
3488;DHT22;38546;48.170;11.724;2024-02-23T08:26:21;6.50;99.90
3488;DHT22;38546;48.170;11.724;2024-02-23T08:28:52;6.50;99.90
3488;DHT22;38546;48.170;11.724;2024-02-23T08:31:23;6.60;99.90
3488;DHT22;38546;48.170;11.724;2024-02-23T08:33:54;6.60;99.90
3488;DHT22;38546;48.170;11.724;2024-02-23T08:36:25;6.70;99.90
3488;DHT22;38546;48.170;11.724;2024-02-23T08:38:56;6.70;99.90
3488;DHT22;38546;48.170;11.724;2024-02-23T08:41:26;6.80;99.90
3488;DHT22;38546;48.170;11.724;2024-02-23T08:43:57;6.80;99.90
3488;DHT22;38546;48.170;11.724;2024-02-23T08:46:28;6.80;99.90
3488;DHT22;38546;48.170;11.724;2024-02-23T08:48:58;6.80;99.90
3488;DHT22;38546;48.170;11.724;2024-02-23T08:51:29;6.80;99.90
3488;DHT22;38546;48.170;11.724;2024-02-23T08:54:00;6.80;99.90
3488;DHT22;38546;48.170;11.724;2024-02-23T08:56:38;6.80;99.90
3488;DHT22;38546;48.170;11.724;2024-02-23T08:59:10;6.70;99.90
3488;DHT22;38546;48.170;11.724;2024-02-23T09:01:40;6.70;99.90
3488;DHT22;38546;48.170;11.724;2024-02-23T09:04:11;6.80;99.90
3488;DHT22;38546;48.170;11.724;2024-02-23T09:06:42;6.80;99.90
3488;DHT22;38546;48.170;11.724;2024-02-23T09:09:12;6.80;99.90
3488;DHT22;38546;48.170;11.724;2024-02-23T09:11:43;6.90;99.90
3488;DHT22;38546;48.170;11.724;2024-02-23T09:14:14;6.90;99.90
3488;DHT22;38546;48.170;11.724;2024-02-23T09:16:44;6.80;99.90
3488;DHT22;38546;48.170;11.724;2024-02-23T09:19:17;6.80;99.90
3488;DHT22;38546;48.170;11.724;2024-02-23T09:21:48;6.80;99.90
3488;DHT22;38546;48.170;11.724;2024-02-23T09:24:19;6.90;99.90
3488;DHT22;38546;48.170;11.724;2024-02-23T09:26:50;6.80;99.90
3488;DHT22;38546;48.170;11.724;2024-02-23T09:29:20;6.80;99.90
3488;DHT22;38546;48.170;11.724;2024-02-23T09:31:51;6.70;99.90
3488;DHT22;38546;48.170;11.724;2024-02-23T09:34:23;6.80;99.90
3488;DHT22;38546;48.170;11.724;2024-02-23T09:36:54;6.70;99.90
3488;DHT22;38546;48.170;11.724;2024-02-23T09:39:24;6.70;99.90
3488;DHT22;38546;48.170;11.724;2024-02-23T09:41:59;6.70;99.90
3488;DHT22;38546;48.170;11.724;2024-02-23T09:44:33;6.80;99.90
3488;DHT22;38546;48.170;11.724;2024-02-23T09:47:05;6.70;99.90
3488;DHT22;38546;48.170;11.724;2024-02-23T09:49:41;6.70;99.90
3488;DHT22;38546;48.170;11.724;2024-02-23T09:52:12;6.80;99.90
3488;DHT22;38546;48.170;11.724;2024-02-23T09:54:42;6.70;99.90
3488;DHT22;38546;48.170;11.724;2024-02-23T09:57:14;6.60;99.90
3488;DHT22;38546;48.170;11.724;2024-02-23T09:59:48;6.60;99.90
3488;DHT22;38546;48.170;11.724;2024-02-23T10:02:22;6.60;99.90
3488;DHT22;38546;48.170;11.724;2024-02-23T10:04:54;6.60;99.90
3488;DHT22;38546;48.170;11.724;2024-02-23T10:07:26;6.70;99.90
3488;DHT22;38546;48.170;11.724;2024-02-23T10:09:58;6.70;99.90
3488;DHT22;38546;48.170;11.724;2024-02-23T10:12:28;6.70;99.90
3488;DHT22;38546;48.170;11.724;2024-02-23T10:14:59;6.70;99.90
3488;DHT22;38546;48.170;11.724;2024-02-23T10:17:30;6.60;99.90
3488;DHT22;38546;48.170;11.724;2024-02-23T10:20:02;6.60;99.90
3488;DHT22;38546;48.170;11.724;2024-02-23T10:22:36;6.60;99.90
3488;DHT22;38546;48.170;11.724;2024-02-23T10:25:07;6.60;99.90
3488;DHT22;38546;48.170;11.724;2024-02-23T10:27:40;6.50;99.90
3488;DHT22;38546;48.170;11.724;2024-02-23T10:30:13;6.50;99.90
3488;DHT22;38546;48.170;11.724;2024-02-23T10:32:46;6.40;99.90
3488;DHT22;38546;48.170;11.724;2024-02-23T10:35:16;6.40;99.90
3488;DHT22;38546;48.170;11.724;2024-02-23T10:37:49;6.40;99.90
3488;DHT22;38546;48.170;11.724;2024-02-23T10:40:22;6.40;99.90
3488;DHT22;38546;48.170;11.724;2024-02-23T10:42:56;6.40;99.90
3488;DHT22;38546;48.170;11.724;2024-02-23T10:45:28;6.50;99.90
3488;DHT22;38546;48.170;11.724;2024-02-23T10:47:59;6.50;99.90
3488;DHT22;38546;48.170;11.724;2024-02-23T10:50:30;6.40;99.90
3488;DHT22;38546;48.170;11.724;2024-02-23T10:53:04;6.40;99.90
3488;DHT22;38546;48.170;11.724;2024-02-23T10:55:39;6.40;99.90
3488;DHT22;38546;48.170;11.724;2024-02-23T10:58:10;6.40;99.90
3488;DHT22;38546;48.170;11.724;2024-02-23T11:00:43;6.40;99.90
3488;DHT22;38546;48.170;11.724;2024-02-23T11:03:16;6.40;99.90
3488;DHT22;38546;48.170;11.724;2024-02-23T11:05:48;6.40;99.90
3488;DHT22;38546;48.170;11.724;2024-02-23T11:08:19;6.40;99.90
3488;DHT22;38546;48.170;11.724;2024-02-23T11:10:51;6.30;99.90
3488;DHT22;38546;48.170;11.724;2024-02-23T11:13:34;6.40;99.90
3488;DHT22;38546;48.170;11.724;2024-02-23T11:16:06;6.30;99.90
3488;DHT22;38546;48.170;11.724;2024-02-23T11:18:40;6.30;99.90
3488;DHT22;38546;48.170;11.724;2024-02-23T11:21:10;6.30;99.90
3488;DHT22;38546;48.170;11.724;2024-02-23T11:23:48;6.40;99.90
3488;DHT22;38546;48.170;11.724;2024-02-23T11:26:23;6.40;99.90
3488;DHT22;38546;48.170;11.724;2024-02-23T11:28:53;6.40;99.90
3488;DHT22;38546;48.170;11.724;2024-02-23T11:31:28;6.50;99.90
3488;DHT22;38546;48.170;11.724;2024-02-23T11:33:59;6.50;99.90
3488;DHT22;38546;48.170;11.724;2024-02-23T11:36:32;6.50;99.90
3488;DHT22;38546;48.170;11.724;2024-02-23T11:39:04;6.40;99.90
3488;DHT22;38546;48.170;11.724;2024-02-23T11:41:36;6.40;99.90
3488;DHT22;38546;48.170;11.724;2024-02-23T11:44:07;6.40;99.90
3488;DHT22;38546;48.170;11.724;2024-02-23T11:46:38;6.40;99.90
3488;DHT22;38546;48.170;11.724;2024-02-23T11:49:09;6.40;99.90
3488;DHT22;38546;48.170;11.724;2024-02-23T11:51:40;6.30;99.90
3488;DHT22;38546;48.170;11.724;2024-02-23T11:54:11;6.30;99.90
3488;DHT22;38546;48.170;11.724;2024-02-23T11:56:42;6.40;99.90
3488;DHT22;38546;48.170;11.724;2024-02-23T11:59:13;6.30;99.90
3488;DHT22;38546;48.170;11.724;2024-02-23T12:01:46;6.30;99.90
3488;DHT22;38546;48.170;11.724;2024-02-23T12:04:17;6.30;99.90
3488;DHT22;38546;48.170;11.724;2024-02-23T12:06:48;6.30;99.90
3488;DHT22;38546;48.170;11.724;2024-02-23T12:09:19;6.30;99.90
3488;DHT22;38546;48.170;11.724;2024-02-23T12:11:50;6.40;99.90
3488;DHT22;38546;48.170;11.724;2024-02-23T12:14:21;6.40;99.90
3488;DHT22;38546;48.170;11.724;2024-02-23T12:16:52;6.60;99.90
3488;DHT22;38546;48.170;11.724;2024-02-23T12:19:23;6.50;99.90
3488;DHT22;38546;48.170;11.724;2024-02-23T12:21:54;6.60;99.90
3488;DHT22;38546;48.170;11.724;2024-02-23T12:24:25;6.50;99.90
3488;DHT22;38546;48.170;11.724;2024-02-23T12:26:58;6.50;99.90
3488;DHT22;38546;48.170;11.724;2024-02-23T12:29:28;6.60;99.90
3488;DHT22;38546;48.170;11.724;2024-02-23T12:32:06;6.50;99.90
3488;DHT22;38546;48.170;11.724;2024-02-23T12:34:37;6.50;99.90
3488;DHT22;38546;48.170;11.724;2024-02-23T12:37:07;6.50;99.90
3488;DHT22;38546;48.170;11.724;2024-02-23T12:39:38;6.40;99.90
3488;DHT22;38546;48.170;11.724;2024-02-23T12:42:09;6.30;99.90
3488;DHT22;38546;48.170;11.724;2024-02-23T12:44:40;6.30;99.90
3488;DHT22;38546;48.170;11.724;2024-02-23T12:47:11;6.20;99.90
3488;DHT22;38546;48.170;11.724;2024-02-23T12:49:41;6.20;99.90
3488;DHT22;38546;48.170;11.724;2024-02-23T12:52:12;6.10;99.90
3488;DHT22;38546;48.170;11.724;2024-02-23T12:54:43;6.10;99.90
3488;DHT22;38546;48.170;11.724;2024-02-23T12:57:14;6.10;99.90
3488;DHT22;38546;48.170;11.724;2024-02-23T12:59:44;6.10;99.90
3488;DHT22;38546;48.170;11.724;2024-02-23T13:02:15;6.00;99.90
3488;DHT22;38546;48.170;11.724;2024-02-23T13:04:46;5.90;99.90
3488;DHT22;38546;48.170;11.724;2024-02-23T13:07:19;6.00;99.90
3488;DHT22;38546;48.170;11.724;2024-02-23T13:09:50;5.90;99.90
3488;DHT22;38546;48.170;11.724;2024-02-23T13:12:21;5.90;99.90
3488;DHT22;38546;48.170;11.724;2024-02-23T13:14:51;5.90;99.90
3488;DHT22;38546;48.170;11.724;2024-02-23T13:17:22;5.90;99.90
3488;DHT22;38546;48.170;11.724;2024-02-23T13:19:53;6.00;99.90
3488;DHT22;38546;48.170;11.724;2024-02-23T13:22:23;6.00;99.90
3488;DHT22;38546;48.170;11.724;2024-02-23T13:24:54;6.00;99.90
3488;DHT22;38546;48.170;11.724;2024-02-23T13:27:25;6.10;99.90
3488;DHT22;38546;48.170;11.724;2024-02-23T13:29:55;6.00;99.90
3488;DHT22;38546;48.170;11.724;2024-02-23T13:32:27;6.00;99.90
3488;DHT22;38546;48.170;11.724;2024-02-23T13:34:57;6.00;99.90
3488;DHT22;38546;48.170;11.724;2024-02-23T13:37:28;6.10;99.90
3488;DHT22;38546;48.170;11.724;2024-02-23T13:39:59;6.00;99.90
3488;DHT22;38546;48.170;11.724;2024-02-23T13:42:30;6.00;99.90
3488;DHT22;38546;48.170;11.724;2024-02-23T13:45:01;6.00;99.90
3488;DHT22;38546;48.170;11.724;2024-02-23T13:47:32;5.90;99.90
3488;DHT22;38546;48.170;11.724;2024-02-23T13:50:03;5.90;99.90
3488;DHT22;38546;48.170;11.724;2024-02-23T13:52:35;5.90;99.90
3488;DHT22;38546;48.170;11.724;2024-02-23T13:55:06;5.90;99.90
3488;DHT22;38546;48.170;11.724;2024-02-23T13:57:37;5.80;99.90
3488;DHT22;38546;48.170;11.724;2024-02-23T14:00:08;5.80;99.90
3488;DHT22;38546;48.170;11.724;2024-02-23T14:02:43;5.80;99.90
3488;DHT22;38546;48.170;11.724;2024-02-23T14:05:15;5.80;99.90
3488;DHT22;38546;48.170;11.724;2024-02-23T14:07:48;5.70;99.90
3488;DHT22;38546;48.170;11.724;2024-02-23T14:10:19;5.70;99.90
3488;DHT22;38546;48.170;11.724;2024-02-23T14:12:50;5.70;99.90
3488;DHT22;38546;48.170;11.724;2024-02-23T14:15:21;5.70;99.90
3488;DHT22;38546;48.170;11.724;2024-02-23T14:17:51;5.60;99.90
3488;DHT22;38546;48.170;11.724;2024-02-23T14:20:22;5.60;99.90
3488;DHT22;38546;48.170;11.724;2024-02-23T14:22:52;5.70;99.90
3488;DHT22;38546;48.170;11.724;2024-02-23T14:25:23;5.70;99.90
3488;DHT22;38546;48.170;11.724;2024-02-23T14:27:54;5.60;99.90
3488;DHT22;38546;48.170;11.724;2024-02-23T14:30:25;5.60;99.90
3488;DHT22;38546;48.170;11.724;2024-02-23T14:32:56;5.60;99.90
3488;DHT22;38546;48.170;11.724;2024-02-23T14:35:27;5.60;99.90
3488;DHT22;38546;48.170;11.724;2024-02-23T14:37:57;5.50;99.90
3488;DHT22;38546;48.170;11.724;2024-02-23T14:40:28;5.50;99.90
3488;DHT22;38546;48.170;11.724;2024-02-23T14:42:59;5.50;99.90
3488;DHT22;38546;48.170;11.724;2024-02-23T14:45:29;5.50;99.90
3488;DHT22;38546;48.170;11.724;2024-02-23T14:48:00;5.40;99.90
3488;DHT22;38546;48.170;11.724;2024-02-23T14:50:31;5.40;99.90
3488;DHT22;38546;48.170;11.724;2024-02-23T14:53:01;5.40;99.90
3488;DHT22;38546;48.170;11.724;2024-02-23T14:55:32;5.30;99.90
3488;DHT22;38546;48.170;11.724;2024-02-23T14:58:03;5.30;99.90
3488;DHT22;38546;48.170;11.724;2024-02-23T15:00:33;5.30;99.90
3488;DHT22;38546;48.170;11.724;2024-02-23T15:03:04;5.30;99.90
3488;DHT22;38546;48.170;11.724;2024-02-23T15:05:35;5.20;99.90
3488;DHT22;38546;48.170;11.724;2024-02-23T15:08:07;5.20;99.90
3488;DHT22;38546;48.170;11.724;2024-02-23T15:10:38;5.10;99.90
3488;DHT22;38546;48.170;11.724;2024-02-23T15:13:08;5.10;99.90
3488;DHT22;38546;48.170;11.724;2024-02-23T15:15:39;5.10;99.90
3488;DHT22;38546;48.170;11.724;2024-02-23T15:18:11;5.10;99.90
3488;DHT22;38546;48.170;11.724;2024-02-23T15:20:41;5.10;99.90
3488;DHT22;38546;48.170;11.724;2024-02-23T15:23:12;5.10;99.90
3488;DHT22;38546;48.170;11.724;2024-02-23T15:25:43;5.10;99.90
3488;DHT22;38546;48.170;11.724;2024-02-23T15:28:14;5.10;99.90
3488;DHT22;38546;48.170;11.724;2024-02-23T15:30:45;5.00;99.90
3488;DHT22;38546;48.170;11.724;2024-02-23T15:33:15;5.00;99.90
3488;DHT22;38546;48.170;11.724;2024-02-23T15:35:46;5.00;99.90
3488;DHT22;38546;48.170;11.724;2024-02-23T15:38:16;4.90;99.90
3488;DHT22;38546;48.170;11.724;2024-02-23T15:40:47;4.90;99.90
3488;DHT22;38546;48.170;11.724;2024-02-23T15:43:18;4.90;99.90
3488;DHT22;38546;48.170;11.724;2024-02-23T15:45:49;4.90;99.90
3488;DHT22;38546;48.170;11.724;2024-02-23T15:48:19;4.80;99.90
3488;DHT22;38546;48.170;11.724;2024-02-23T15:50:50;4.80;99.90
3488;DHT22;38546;48.170;11.724;2024-02-23T15:53:21;4.70;99.90
3488;DHT22;38546;48.170;11.724;2024-02-23T15:55:51;4.60;99.90
3488;DHT22;38546;48.170;11.724;2024-02-23T15:58:22;4.60;99.90
3488;DHT22;38546;48.170;11.724;2024-02-23T16:00:53;4.60;99.90
3488;DHT22;38546;48.170;11.724;2024-02-23T16:03:24;4.50;99.90
3488;DHT22;38546;48.170;11.724;2024-02-23T16:05:55;4.50;99.90
3488;DHT22;38546;48.170;11.724;2024-02-23T16:11:18;4.40;99.90
3488;DHT22;38546;48.170;11.724;2024-02-23T16:13:49;4.40;99.90